createdAt,value
2019-03-27T00:00:55.556Z,37.92
2019-03-27T00:01:55.478Z,38.10
2019-03-27T00:02:55.411Z,37.82
2019-03-27T00:03:55.245Z,38.10
2019-03-27T00:04:55.129Z,37.54
2019-03-27T00:05:55.020Z,37.54
2019-03-27T00:06:54.923Z,37.35
2019-03-27T00:07:54.809Z,37.63
2019-03-27T00:08:54.706Z,37.63
2019-03-27T00:09:54.599Z,37.63
2019-03-27T00:10:54.489Z,37.35
2019-03-27T00:11:54.382Z,37.16
2019-03-27T00:12:54.278Z,37.25
2019-03-27T00:13:54.171Z,37.16
2019-03-27T00:14:54.064Z,37.16
2019-03-27T00:15:53.956Z,37.16
2019-03-27T00:16:54.149Z,37.16
2019-03-27T00:17:53.745Z,37.18
2019-03-27T00:18:53.638Z,37.55
2019-03-27T00:19:53.530Z,37.27
2019-03-27T00:20:53.454Z,37.25
2019-03-27T00:21:53.392Z,37.73
2019-03-27T00:22:53.218Z,37.73
2019-03-27T00:23:53.105Z,37.84
2019-03-27T00:24:53.000Z,38.03
2019-03-27T00:25:52.892Z,37.84
2019-03-27T00:26:52.786Z,37.84
2019-03-27T00:27:52.682Z,38.03
2019-03-27T00:28:52.574Z,37.93
2019-03-27T00:29:52.465Z,37.84
2019-03-27T00:30:52.361Z,38.60
2019-03-27T00:31:52.254Z,38.79
2019-03-27T00:32:52.148Z,38.60
2019-03-27T00:33:52.044Z,38.89
2019-03-27T00:34:51.937Z,38.79
2019-03-27T00:35:51.830Z,38.79
2019-03-27T00:36:51.726Z,38.98
2019-03-27T00:37:51.625Z,39.07
2019-03-27T00:38:51.515Z,39.36
2019-03-27T00:39:51.439Z,39.64
2019-03-27T00:40:51.366Z,39.73
2019-03-27T00:41:51.198Z,39.73
2019-03-27T00:42:51.089Z,39.64
2019-03-27T00:43:50.982Z,40.31
2019-03-27T00:44:50.876Z,40.21
2019-03-27T00:45:50.769Z,40.02
2019-03-27T00:46:50.664Z,40.12
2019-03-27T00:47:50.558Z,40.50
2019-03-27T00:48:50.453Z,40.50
2019-03-27T00:49:50.347Z,40.69
2019-03-27T00:50:50.239Z,40.31
2019-03-27T00:51:50.135Z,40.31
2019-03-27T00:52:50.026Z,40.78
2019-03-27T00:53:49.920Z,40.78
2019-03-27T00:54:49.815Z,40.69
2019-03-27T00:55:49.709Z,40.97
2019-03-27T00:56:49.605Z,41.06
2019-03-27T00:57:49.498Z,40.78
2019-03-27T00:58:49.403Z,40.88
2019-03-27T00:59:49.349Z,40.89
2019-03-27T01:00:49.182Z,40.97
2019-03-27T01:01:49.074Z,41.06
2019-03-27T01:02:48.974Z,40.99
2019-03-27T01:03:48.864Z,41.16
2019-03-27T01:04:48.756Z,41.18
2019-03-27T01:05:48.651Z,40.99
2019-03-27T01:06:50.949Z,40.99
2019-03-27T01:07:48.439Z,41.37
2019-03-27T01:08:48.332Z,41.46
2019-03-27T01:09:48.227Z,41.27
2019-03-27T01:10:48.124Z,41.75
2019-03-27T01:11:48.013Z,41.94
2019-03-27T01:12:47.908Z,41.85
2019-03-27T01:13:47.805Z,42.22
2019-03-27T01:14:47.697Z,42.13
2019-03-27T01:15:47.590Z,42.22
2019-03-27T01:16:47.489Z,42.22
2019-03-27T01:17:47.404Z,42.41
2019-03-27T01:18:47.317Z,42.22
2019-03-27T01:19:47.255Z,42.13
2019-03-27T01:20:47.064Z,42.03
2019-03-27T01:21:46.957Z,42.13
2019-03-27T01:22:46.852Z,42.03
2019-03-27T01:23:46.747Z,42.22
2019-03-27T01:24:46.639Z,41.94
2019-03-27T01:25:46.535Z,42.13
2019-03-27T01:26:46.429Z,41.85
2019-03-27T01:27:46.322Z,41.94
2019-03-27T01:28:46.220Z,41.94
2019-03-27T01:29:46.109Z,41.85
2019-03-27T01:30:46.006Z,41.75
2019-03-27T01:31:45.901Z,41.66
2019-03-27T01:32:45.794Z,41.85
2019-03-27T01:33:45.691Z,41.85
2019-03-27T01:34:45.583Z,41.75
2019-03-27T01:35:45.477Z,41.46
2019-03-27T01:36:45.387Z,41.75
2019-03-27T01:37:45.302Z,41.37
2019-03-27T01:38:45.167Z,41.56
2019-03-27T01:39:45.052Z,41.37
2019-03-27T01:40:44.949Z,41.27
2019-03-27T01:41:44.851Z,40.88
2019-03-27T01:42:44.737Z,40.99
2019-03-27T01:43:44.633Z,40.70
2019-03-27T01:44:44.526Z,40.42
2019-03-27T01:45:53.106Z,40.61
2019-03-27T01:46:44.314Z,40.42
2019-03-27T01:47:44.208Z,40.52
2019-03-27T01:48:44.103Z,40.70
2019-03-27T01:49:43.996Z,40.70
2019-03-27T01:50:43.891Z,40.99
2019-03-27T01:51:43.785Z,40.99
2019-03-27T01:52:43.682Z,40.80
2019-03-27T01:53:43.573Z,40.89
2019-03-27T01:54:43.469Z,40.89
2019-03-27T01:55:43.361Z,41.18
2019-03-27T01:56:43.339Z,41.18
2019-03-27T01:57:43.151Z,41.18
2019-03-27T01:58:43.047Z,40.89
2019-03-27T01:59:42.941Z,41.27
2019-03-27T02:00:42.835Z,40.99
2019-03-27T02:01:42.730Z,40.89
2019-03-27T02:02:42.623Z,40.70
2019-03-27T02:03:42.520Z,40.52
2019-03-27T02:04:42.411Z,40.52
2019-03-27T02:05:42.309Z,40.80
2019-03-27T02:06:42.201Z,41.08
2019-03-27T02:07:42.094Z,40.78
2019-03-27T02:08:41.988Z,40.78
2019-03-27T02:09:41.887Z,40.50
2019-03-27T02:10:41.777Z,40.50
2019-03-27T02:11:41.669Z,40.12
2019-03-27T02:12:41.565Z,40.31
2019-03-27T02:13:41.459Z,39.54
2019-03-27T02:14:41.358Z,39.17
2019-03-27T02:15:41.314Z,38.89
2019-03-27T02:16:41.139Z,38.79
2019-03-27T02:17:41.036Z,38.69
2019-03-27T02:18:40.931Z,38.79
2019-03-27T02:19:40.824Z,38.69
2019-03-27T02:20:40.719Z,38.31
2019-03-27T02:21:40.612Z,38.50
2019-03-27T02:22:40.507Z,38.31
2019-03-27T02:23:40.400Z,38.41
2019-03-27T02:24:40.293Z,38.69
2019-03-27T02:25:40.189Z,38.71
2019-03-27T02:26:40.085Z,38.60
2019-03-27T02:27:39.979Z,38.81
2019-03-27T02:28:39.873Z,38.24
2019-03-27T02:29:39.768Z,38.33
2019-03-27T02:30:39.662Z,38.05
2019-03-27T02:31:39.556Z,38.03
2019-03-27T02:32:39.459Z,37.57
2019-03-27T02:33:39.359Z,37.27
2019-03-27T02:34:39.310Z,37.74
2019-03-27T02:35:39.188Z,37.93
2019-03-27T02:36:39.027Z,37.74
2019-03-27T02:37:38.933Z,37.27
2019-03-27T02:38:38.815Z,37.08
2019-03-27T02:39:38.711Z,37.10
2019-03-27T02:40:38.606Z,37.19
2019-03-27T02:41:38.799Z,36.99
2019-03-27T02:42:38.391Z,37.18
2019-03-27T02:43:38.286Z,36.89
2019-03-27T02:44:38.184Z,36.61
2019-03-27T02:45:38.095Z,36.70
2019-03-27T02:46:37.969Z,36.51
2019-03-27T02:47:37.889Z,36.22
2019-03-27T02:48:37.758Z,35.94
2019-03-27T02:49:37.656Z,35.75
2019-03-27T02:50:37.546Z,35.75
2019-03-27T02:51:37.446Z,35.66
2019-03-27T02:52:37.335Z,35.57
2019-03-27T02:53:37.268Z,35.30
2019-03-27T02:54:37.204Z,35.49
2019-03-27T02:55:37.025Z,35.28
2019-03-27T02:56:36.913Z,35.28
2019-03-27T02:57:36.811Z,35.20
2019-03-27T02:58:36.699Z,35.18
2019-03-27T02:59:36.594Z,35.18
2019-03-27T03:00:36.493Z,35.18
2019-03-27T03:01:36.382Z,35.11
2019-03-27T03:02:36.281Z,35.09
2019-03-27T03:03:36.171Z,35.09
2019-03-27T03:04:36.070Z,34.80
2019-03-27T03:05:35.958Z,34.92
2019-03-27T03:06:35.862Z,34.99
2019-03-27T03:07:35.747Z,35.01
2019-03-27T03:08:35.641Z,34.99
2019-03-27T03:09:35.536Z,35.01
2019-03-27T03:10:35.434Z,35.11
2019-03-27T03:11:35.324Z,34.82
2019-03-27T03:12:35.256Z,34.82
2019-03-27T03:13:35.183Z,35.01
2019-03-27T03:14:35.016Z,35.11
2019-03-27T03:15:34.900Z,34.92
2019-03-27T03:16:42.275Z,34.92
2019-03-27T03:17:34.688Z,35.01
2019-03-27T03:18:34.592Z,35.01
2019-03-27T03:19:34.480Z,34.82
2019-03-27T03:20:34.371Z,34.92
2019-03-27T03:21:34.266Z,34.82
2019-03-27T03:22:34.203Z,34.92
2019-03-27T03:23:34.051Z,34.92
2019-03-27T03:24:33.945Z,34.82
2019-03-27T03:25:33.852Z,35.11
2019-03-27T03:26:34.038Z,35.20
2019-03-27T03:27:33.630Z,35.01
2019-03-27T03:28:33.525Z,34.92
2019-03-27T03:29:33.419Z,34.92
2019-03-27T03:30:33.312Z,35.01
2019-03-27T03:31:33.234Z,34.92
2019-03-27T03:32:33.146Z,34.82
2019-03-27T03:33:33.013Z,35.01
2019-03-27T03:34:32.891Z,34.92
2019-03-27T03:35:32.783Z,34.92
2019-03-27T03:36:32.675Z,35.01
2019-03-27T03:37:32.573Z,34.92
2019-03-27T03:38:32.466Z,34.92
2019-03-27T03:39:32.361Z,34.92
2019-03-27T03:40:32.300Z,34.92
2019-03-27T03:41:32.148Z,35.20
2019-03-27T03:42:32.046Z,35.11
2019-03-27T03:43:31.943Z,35.20
2019-03-27T03:44:31.832Z,35.30
2019-03-27T03:45:31.728Z,35.30
2019-03-27T03:46:31.620Z,35.20
2019-03-27T03:47:31.526Z,35.11
2019-03-27T03:48:31.408Z,35.20
2019-03-27T03:49:31.303Z,35.30
2019-03-27T03:50:31.208Z,35.11
2019-03-27T03:51:31.130Z,35.30
2019-03-27T03:52:30.986Z,35.49
2019-03-27T03:53:30.882Z,35.49
2019-03-27T03:54:30.788Z,35.68
2019-03-27T03:55:30.669Z,35.86
2019-03-27T03:56:30.564Z,35.86
2019-03-27T03:57:30.458Z,35.86
2019-03-27T03:58:30.351Z,35.86
2019-03-27T03:59:30.250Z,35.58
2019-03-27T04:00:30.184Z,35.77
2019-03-27T04:01:30.041Z,35.69
2019-03-27T04:02:29.932Z,35.86
2019-03-27T04:03:29.826Z,36.07
2019-03-27T04:04:29.725Z,36.36
2019-03-27T04:05:29.618Z,36.26
2019-03-27T04:06:29.813Z,36.07
2019-03-27T04:07:29.405Z,35.68
2019-03-27T04:08:29.300Z,35.79
2019-03-27T04:09:29.194Z,35.79
2019-03-27T04:10:29.178Z,35.98
2019-03-27T04:11:28.988Z,36.07
2019-03-27T04:12:28.881Z,36.24
2019-03-27T04:13:28.771Z,36.46
2019-03-27T04:14:28.668Z,36.17
2019-03-27T04:15:28.562Z,36.17
2019-03-27T04:16:28.456Z,36.46
2019-03-27T04:17:28.352Z,36.36
2019-03-27T04:18:28.246Z,36.46
2019-03-27T04:19:28.140Z,36.17
2019-03-27T04:20:28.035Z,36.46
2019-03-27T04:21:28.233Z,36.07
2019-03-27T04:22:27.825Z,36.46
2019-03-27T04:23:27.719Z,36.36
2019-03-27T04:24:27.611Z,36.55
2019-03-27T04:25:27.509Z,35.79
2019-03-27T04:26:27.403Z,35.88
2019-03-27T04:27:27.296Z,35.88
2019-03-27T04:28:27.191Z,36.36
2019-03-27T04:29:27.154Z,36.17
2019-03-27T04:30:27.107Z,36.26
2019-03-27T04:31:26.876Z,36.07
2019-03-27T04:32:26.774Z,36.36
2019-03-27T04:33:26.668Z,36.26
2019-03-27T04:34:26.564Z,36.17
2019-03-27T04:35:26.456Z,36.36
2019-03-27T04:36:26.360Z,36.26
2019-03-27T04:37:26.246Z,36.17
2019-03-27T04:38:26.146Z,36.36
2019-03-27T04:39:26.040Z,36.46
2019-03-27T04:40:25.931Z,36.17
2019-03-27T04:41:25.827Z,36.07
2019-03-27T04:42:25.720Z,36.17
2019-03-27T04:43:25.630Z,36.17
2019-03-27T04:44:25.511Z,36.36
2019-03-27T04:45:25.405Z,36.74
2019-03-27T04:46:25.298Z,36.74
2019-03-27T04:47:31.984Z,36.26
2019-03-27T04:48:25.125Z,36.17
2019-03-27T04:49:25.054Z,36.36
2019-03-27T04:50:24.879Z,36.26
2019-03-27T04:51:25.071Z,36.83
2019-03-27T04:52:24.666Z,36.17
2019-03-27T04:53:24.604Z,36.26
2019-03-27T04:54:26.916Z,36.07
2019-03-27T04:55:24.351Z,36.36
2019-03-27T04:56:24.247Z,36.55
2019-03-27T04:57:24.148Z,36.65
2019-03-27T04:58:24.037Z,36.26
2019-03-27T04:59:23.932Z,36.65
2019-03-27T05:00:23.891Z,36.83
2019-03-27T05:01:23.721Z,36.07
2019-03-27T05:02:23.615Z,36.17
2019-03-27T05:03:23.511Z,36.74
2019-03-27T05:04:23.412Z,37.12
2019-03-27T05:05:23.299Z,36.65
2019-03-27T05:06:23.202Z,36.74
2019-03-27T05:07:23.113Z,36.55
2019-03-27T05:08:23.054Z,36.55
2019-03-27T05:09:22.881Z,36.26
2019-03-27T05:10:22.776Z,35.98
2019-03-27T05:11:22.669Z,35.98
2019-03-27T05:12:22.565Z,35.88
2019-03-27T05:13:22.460Z,35.79
2019-03-27T05:14:22.357Z,35.69
2019-03-27T05:15:22.250Z,35.50
2019-03-27T05:16:22.146Z,35.50
2019-03-27T05:17:22.040Z,35.22
2019-03-27T05:18:21.940Z,35.22
2019-03-27T05:19:21.836Z,35.13
2019-03-27T05:20:21.724Z,35.22
2019-03-27T05:21:21.921Z,35.31
2019-03-27T05:22:21.515Z,34.84
2019-03-27T05:23:21.410Z,34.84
2019-03-27T05:24:21.306Z,34.65
2019-03-27T05:25:21.201Z,34.84
2019-03-27T05:26:21.097Z,34.65
2019-03-27T05:27:21.073Z,34.65
2019-03-27T05:28:20.886Z,34.65
2019-03-27T05:29:20.786Z,34.94
2019-03-27T05:30:20.677Z,34.94
2019-03-27T05:31:20.571Z,35.41
2019-03-27T05:32:20.463Z,35.50
2019-03-27T05:33:20.363Z,35.33
2019-03-27T05:34:20.257Z,35.81
2019-03-27T05:35:20.153Z,35.90
2019-03-27T05:36:20.048Z,36.09
2019-03-27T05:37:19.940Z,35.98
2019-03-27T05:38:19.838Z,36.00
2019-03-27T05:39:19.732Z,35.69
2019-03-27T05:40:19.630Z,35.61
2019-03-27T05:41:19.525Z,35.60
2019-03-27T05:42:19.419Z,35.33
2019-03-27T05:43:19.315Z,35.42
2019-03-27T05:44:19.210Z,35.33
2019-03-27T05:45:19.105Z,35.33
2019-03-27T05:46:19.064Z,34.75
2019-03-27T05:47:18.911Z,34.86
2019-03-27T05:48:18.796Z,34.84
2019-03-27T05:49:18.690Z,34.57
2019-03-27T05:50:18.582Z,34.38
2019-03-27T05:51:18.477Z,34.29
2019-03-27T05:52:18.372Z,34.19
2019-03-27T05:53:18.266Z,33.81
2019-03-27T05:54:18.163Z,33.24
2019-03-27T05:55:18.056Z,33.15
2019-03-27T05:56:17.953Z,33.34
2019-03-27T05:57:17.846Z,33.13
2019-03-27T05:58:17.742Z,33.05
2019-03-27T05:59:17.641Z,32.67
2019-03-27T06:00:17.537Z,33.24
2019-03-27T06:01:17.430Z,32.96
2019-03-27T06:02:17.323Z,32.57
2019-03-27T06:03:17.216Z,33.05
2019-03-27T06:04:17.114Z,32.96
2019-03-27T06:05:17.035Z,32.57
2019-03-27T06:06:16.972Z,33.05
2019-03-27T06:07:16.799Z,32.86
2019-03-27T06:08:16.701Z,32.77
2019-03-27T06:09:16.590Z,32.94
2019-03-27T06:10:16.584Z,32.86
2019-03-27T06:11:16.379Z,32.65
2019-03-27T06:12:16.276Z,32.84
2019-03-27T06:13:16.170Z,32.75
2019-03-27T06:14:16.064Z,33.04
2019-03-27T06:15:15.959Z,33.05
2019-03-27T06:16:15.854Z,33.04
2019-03-27T06:17:15.751Z,32.94
2019-03-27T06:18:15.645Z,32.86
2019-03-27T06:19:15.541Z,33.04
2019-03-27T06:20:15.435Z,33.24
2019-03-27T06:21:15.332Z,33.24
2019-03-27T06:22:15.333Z,33.23
2019-03-27T06:23:15.123Z,33.34
2019-03-27T06:24:15.019Z,32.96
2019-03-27T06:25:14.954Z,33.24
2019-03-27T06:26:14.812Z,33.15
2019-03-27T06:27:14.703Z,32.77
2019-03-27T06:28:14.597Z,32.67
2019-03-27T06:29:15.812Z,32.67
2019-03-27T06:30:14.390Z,33.05
2019-03-27T06:31:14.282Z,33.15
2019-03-27T06:32:14.179Z,33.44
2019-03-27T06:33:14.075Z,33.44
2019-03-27T06:34:13.974Z,33.81
2019-03-27T06:35:13.863Z,34.38
2019-03-27T06:36:13.760Z,34.57
2019-03-27T06:37:13.658Z,34.76
2019-03-27T06:38:13.552Z,34.95
2019-03-27T06:39:13.444Z,35.71
2019-03-27T06:40:13.345Z,35.71
2019-03-27T06:41:13.236Z,36.00
2019-03-27T06:42:13.130Z,36.00
2019-03-27T06:43:13.028Z,36.00
2019-03-27T06:44:12.982Z,36.38
2019-03-27T06:45:12.818Z,37.61
2019-03-27T06:46:12.712Z,38.09
2019-03-27T06:47:12.610Z,38.77
2019-03-27T06:48:25.457Z,40.65
2019-03-27T06:49:12.403Z,40.86
2019-03-27T06:50:12.298Z,41.43
2019-03-27T06:51:12.189Z,42.93
2019-03-27T06:52:12.089Z,42.76
2019-03-27T06:53:11.980Z,43.05
2019-03-27T06:54:11.877Z,43.52
2019-03-27T06:55:11.773Z,44.67
2019-03-27T06:56:11.667Z,47.13
2019-03-27T06:57:11.568Z,48.75
2019-03-27T06:58:11.471Z,51.60
2019-03-27T06:59:11.356Z,52.84
2019-03-27T07:00:11.266Z,51.51
2019-03-27T07:01:11.151Z,52.96
2019-03-27T07:02:11.044Z,53.43
2019-03-27T07:03:10.957Z,55.71
2019-03-27T07:04:11.131Z,56.19
2019-03-27T07:05:10.738Z,57.14
2019-03-27T07:06:10.629Z,61.23
2019-03-27T07:07:10.528Z,60.38
2019-03-27T07:08:10.423Z,60.75
2019-03-27T07:09:10.320Z,62.65
2019-03-27T07:10:10.217Z,61.23
2019-03-27T07:11:10.114Z,61.32
2019-03-27T07:12:20.497Z,60.66
2019-03-27T07:13:09.909Z,65.32
2019-03-27T07:14:09.805Z,65.41
2019-03-27T07:15:09.700Z,63.23
2019-03-27T07:16:09.599Z,66.36
2019-03-27T07:17:09.495Z,68.27
2019-03-27T07:18:09.394Z,69.31
2019-03-27T07:19:09.286Z,68.55
2019-03-27T07:20:09.185Z,70.64
2019-03-27T07:21:09.079Z,71.12
2019-03-27T07:22:08.979Z,71.59
2019-03-27T07:23:08.935Z,72.35
2019-03-27T07:24:08.770Z,70.36
2019-03-27T07:25:08.668Z,73.30
2019-03-27T07:26:08.580Z,72.16
2019-03-27T07:27:08.467Z,73.30
2019-03-27T07:28:08.362Z,73.63
2019-03-27T07:29:08.259Z,74.01
2019-03-27T07:30:08.154Z,76.16
2019-03-27T07:31:08.051Z,76.35
2019-03-27T07:32:07.950Z,75.49
2019-03-27T07:33:07.846Z,72.64
2019-03-27T07:34:07.744Z,75.24
2019-03-27T07:35:07.640Z,76.25
2019-03-27T07:36:07.538Z,78.67
2019-03-27T07:37:07.435Z,80.10
2019-03-27T07:38:07.332Z,78.67
2019-03-27T07:39:11.179Z,78.67
2019-03-27T07:40:07.131Z,79.05
2019-03-27T07:41:07.026Z,81.24
2019-03-27T07:42:06.922Z,81.81
2019-03-27T07:43:06.844Z,84.09
2019-03-27T07:44:06.717Z,84.28
2019-03-27T07:45:06.618Z,82.38
2019-03-27T07:46:06.513Z,83.04
2019-03-27T07:47:06.410Z,82.19
2019-03-27T07:48:06.308Z,81.14
2019-03-27T07:49:06.206Z,81.24
2019-03-27T07:50:06.102Z,84.56
2019-03-27T07:51:06.000Z,81.43
2019-03-27T07:52:05.898Z,81.71
2019-03-27T07:53:05.794Z,82.86
2019-03-27T07:54:05.694Z,81.90
2019-03-27T07:55:18.434Z,81.90
2019-03-27T07:56:05.493Z,81.33
2019-03-27T07:57:05.389Z,82.57
2019-03-27T07:58:05.285Z,82.67
2019-03-27T07:59:05.182Z,81.90
2019-03-27T08:00:05.091Z,81.24
2019-03-27T08:01:04.980Z,81.14
2019-03-27T08:02:04.890Z,82.00
2019-03-27T08:03:04.826Z,81.43
2019-03-27T08:04:04.672Z,81.52
2019-03-27T08:05:04.569Z,83.62
2019-03-27T08:06:04.465Z,82.48
2019-03-27T08:07:04.365Z,84.76
2019-03-27T08:08:04.262Z,84.85
2019-03-27T08:09:04.160Z,84.19
2019-03-27T08:10:04.058Z,84.85
2019-03-27T08:11:03.956Z,85.24
2019-03-27T08:12:03.859Z,85.33
2019-03-27T08:13:03.754Z,84.85
2019-03-27T08:14:03.649Z,84.76
2019-03-27T08:15:03.546Z,84.19
2019-03-27T08:16:03.444Z,85.04
2019-03-27T08:17:03.342Z,85.90
2019-03-27T08:18:03.242Z,84.76
2019-03-27T08:19:07.683Z,84.09
2019-03-27T08:20:03.035Z,84.76
2019-03-27T08:21:02.938Z,84.47
2019-03-27T08:22:02.867Z,84.76
2019-03-27T08:23:02.806Z,84.38
2019-03-27T08:24:02.626Z,81.90
2019-03-27T08:25:02.524Z,82.57
2019-03-27T08:26:02.421Z,83.52
2019-03-27T08:27:02.322Z,83.33
2019-03-27T08:28:02.215Z,84.66
2019-03-27T08:29:02.134Z,82.76
2019-03-27T08:30:02.026Z,84.09
2019-03-27T08:31:01.909Z,84.19
2019-03-27T08:32:01.809Z,83.48
2019-03-27T08:33:01.706Z,83.04
2019-03-27T08:34:01.601Z,83.33
2019-03-27T08:35:01.498Z,84.38
2019-03-27T08:36:01.399Z,84.52
2019-03-27T08:37:01.295Z,84.28
2019-03-27T08:38:01.191Z,82.86
2019-03-27T08:39:01.095Z,82.86
2019-03-27T08:40:00.987Z,84.66
2019-03-27T08:41:00.883Z,83.81
2019-03-27T08:42:00.857Z,82.86
2019-03-27T08:43:00.688Z,83.14
2019-03-27T08:44:00.575Z,83.81
2019-03-27T08:45:00.478Z,85.80
2019-03-27T08:46:00.367Z,84.56
2019-03-27T08:47:00.265Z,85.14
2019-03-27T08:48:00.165Z,83.76
2019-03-27T08:49:00.062Z,84.05
2019-03-27T08:49:59.961Z,84.09
2019-03-27T08:50:59.855Z,84.52
2019-03-27T08:51:59.756Z,84.76
2019-03-27T08:52:59.651Z,85.24
2019-03-27T08:53:59.551Z,85.33
2019-03-27T08:54:59.445Z,87.04
2019-03-27T08:55:59.342Z,85.99
2019-03-27T08:56:59.240Z,85.71
2019-03-27T08:57:59.138Z,85.75
2019-03-27T08:58:59.035Z,87.75
2019-03-27T08:59:58.932Z,89.75
2019-03-27T09:00:58.831Z,88.13
2019-03-27T09:01:58.754Z,89.37
2019-03-27T09:02:58.626Z,88.51
2019-03-27T09:03:58.531Z,88.99
2019-03-27T09:04:58.421Z,87.94
2019-03-27T09:05:58.319Z,87.46
2019-03-27T09:06:58.217Z,87.52
2019-03-27T09:07:58.113Z,87.99
2019-03-27T09:08:58.011Z,86.76
2019-03-27T09:09:57.911Z,87.13
2019-03-27T09:10:57.807Z,86.85
2019-03-27T09:11:57.710Z,86.47
2019-03-27T09:12:57.608Z,86.57
2019-03-27T09:13:57.502Z,87.61
2019-03-27T09:14:57.399Z,88.99
2019-03-27T09:15:57.295Z,87.75
2019-03-27T09:16:57.194Z,90.51
2019-03-27T09:17:57.093Z,90.84
2019-03-27T09:18:56.992Z,90.56
2019-03-27T09:19:56.889Z,92.27
2019-03-27T09:20:56.804Z,93.13
2019-03-27T09:21:56.724Z,92.98
2019-03-27T09:22:56.581Z,93.74
2019-03-27T09:23:56.480Z,93.70
2019-03-27T09:24:56.379Z,95.79
2019-03-27T09:25:56.279Z,94.17
2019-03-27T09:26:56.176Z,97.03
2019-03-27T09:27:56.078Z,96.94
2019-03-27T09:28:55.975Z,95.41
2019-03-27T09:29:55.877Z,92.98
2019-03-27T09:30:55.771Z,94.70
2019-03-27T09:31:55.670Z,93.17
2019-03-27T09:32:55.568Z,92.98
2019-03-27T09:33:55.469Z,93.51
2019-03-27T09:34:55.367Z,94.27
2019-03-27T09:35:55.340Z,93.08
2019-03-27T09:36:55.166Z,93.17
2019-03-27T09:37:55.070Z,94.89
2019-03-27T09:38:54.964Z,94.03
2019-03-27T09:39:54.865Z,95.27
2019-03-27T09:40:54.766Z,95.08
2019-03-27T09:41:54.708Z,94.13
2019-03-27T09:42:54.562Z,94.13
2019-03-27T09:43:54.462Z,93.37
2019-03-27T09:44:54.361Z,94.13
2019-03-27T09:45:54.261Z,94.32
2019-03-27T09:46:54.158Z,95.94
2019-03-27T09:47:54.062Z,95.65
2019-03-27T09:48:53.961Z,93.65
2019-03-27T09:49:53.856Z,95.08
2019-03-27T09:50:53.755Z,94.98
2019-03-27T09:51:53.660Z,95.51
2019-03-27T09:52:53.554Z,93.03
2019-03-27T09:53:53.476Z,92.84
2019-03-27T09:54:53.352Z,94.37
2019-03-27T09:55:53.252Z,93.22
2019-03-27T09:56:53.160Z,92.46
2019-03-27T09:57:53.051Z,92.94
2019-03-27T09:58:52.950Z,93.22
2019-03-27T09:59:52.853Z,93.79
2019-03-27T10:00:52.770Z,92.84
2019-03-27T10:01:52.680Z,94.27
2019-03-27T10:02:52.545Z,92.65
2019-03-27T10:03:52.447Z,91.13
2019-03-27T10:04:55.595Z,92.46
2019-03-27T10:05:52.242Z,91.22
2019-03-27T10:07:25.372Z,93.03
2019-03-27T10:07:52.055Z,91.70
2019-03-27T10:08:51.956Z,92.74
2019-03-27T10:09:51.856Z,94.84
2019-03-27T10:10:51.751Z,94.46
2019-03-27T10:11:51.653Z,94.17
2019-03-27T10:12:51.549Z,94.84
2019-03-27T10:13:51.449Z,95.22
2019-03-27T10:14:51.348Z,95.03
2019-03-27T10:15:51.244Z,94.79
2019-03-27T10:16:51.148Z,94.32
2019-03-27T10:17:51.046Z,95.08
2019-03-27T10:18:50.945Z,94.13
2019-03-27T10:20:02.835Z,95.22
2019-03-27T10:20:50.746Z,94.93
2019-03-27T10:21:50.669Z,94.32
2019-03-27T10:22:50.539Z,96.22
2019-03-27T10:23:50.487Z,95.98
2019-03-27T10:24:50.337Z,94.84
2019-03-27T10:25:50.238Z,96.36
2019-03-27T10:26:50.135Z,96.56
2019-03-27T10:27:50.034Z,96.56
2019-03-27T10:28:49.933Z,98.08
2019-03-27T10:29:49.832Z,96.84
2019-03-27T10:30:49.735Z,96.17
2019-03-27T10:31:49.634Z,95.98
2019-03-27T10:32:49.535Z,96.17
2019-03-27T10:33:49.432Z,97.17
2019-03-27T10:34:49.330Z,96.56
2019-03-27T10:35:49.231Z,97.80
2019-03-27T10:36:49.130Z,96.94
2019-03-27T10:37:49.031Z,96.70
2019-03-27T10:38:48.928Z,98.46
2019-03-27T10:39:48.828Z,97.08
2019-03-27T10:40:48.729Z,98.32
2019-03-27T10:41:48.691Z,98.90
2019-03-27T10:42:48.530Z,97.66
2019-03-27T10:43:48.431Z,98.80
2019-03-27T10:44:48.329Z,98.90
2019-03-27T10:45:48.231Z,98.13
2019-03-27T10:46:48.128Z,98.18
2019-03-27T10:47:48.027Z,97.51
2019-03-27T10:48:52.817Z,95.89
2019-03-27T10:49:47.830Z,96.56
2019-03-27T10:50:47.727Z,97.41
2019-03-27T10:51:47.630Z,96.60
2019-03-27T10:52:47.528Z,97.13
2019-03-27T10:53:47.434Z,96.94
2019-03-27T10:54:47.329Z,96.27
2019-03-27T10:55:47.230Z,97.13
2019-03-27T10:56:47.129Z,96.56
2019-03-27T10:57:47.030Z,96.36
2019-03-27T10:58:46.993Z,97.22
2019-03-27T10:59:46.831Z,96.27
2019-03-27T11:00:46.727Z,96.65
2019-03-27T11:01:46.674Z,97.80
2019-03-27T11:02:46.544Z,97.51
2019-03-27T11:03:46.425Z,97.13
2019-03-27T11:04:46.332Z,96.17
2019-03-27T11:05:46.228Z,96.70
2019-03-27T11:06:46.128Z,94.79
2019-03-27T11:07:46.031Z,96.70
2019-03-27T11:08:45.928Z,96.22
2019-03-27T11:09:45.827Z,96.51
2019-03-27T11:10:45.725Z,96.12
2019-03-27T11:11:45.628Z,95.84
2019-03-27T11:12:45.526Z,95.27
2019-03-27T11:13:45.426Z,96.70
2019-03-27T11:14:45.323Z,96.03
2019-03-27T11:15:45.222Z,97.17
2019-03-27T11:16:45.125Z,96.98
2019-03-27T11:17:45.023Z,95.27
2019-03-27T11:18:44.921Z,95.17
2019-03-27T11:19:44.820Z,93.93
2019-03-27T11:20:44.727Z,95.27
2019-03-27T11:21:44.658Z,97.08
2019-03-27T11:22:44.582Z,95.65
2019-03-27T11:23:44.421Z,94.70
2019-03-27T11:24:44.317Z,94.98
2019-03-27T11:25:44.217Z,94.74
2019-03-27T11:26:44.114Z,95.70
2019-03-27T11:27:44.014Z,96.17
2019-03-27T11:28:43.915Z,96.46
2019-03-27T11:29:43.814Z,95.89
2019-03-27T11:30:43.713Z,96.08
2019-03-27T11:31:43.613Z,96.46
2019-03-27T11:32:43.513Z,96.08
2019-03-27T11:33:43.410Z,96.94
2019-03-27T11:34:43.310Z,96.27
2019-03-27T11:35:43.209Z,97.03
2019-03-27T11:36:43.109Z,96.80
2019-03-27T11:37:43.011Z,97.17
2019-03-27T11:38:42.904Z,97.27
2019-03-27T11:39:42.806Z,97.22
2019-03-27T11:40:42.708Z,97.56
2019-03-27T11:41:42.643Z,98.13
2019-03-27T11:42:42.559Z,97.37
2019-03-27T11:43:54.327Z,97.80
2019-03-27T11:44:42.306Z,98.18
2019-03-27T11:45:42.203Z,97.94
2019-03-27T11:46:42.103Z,97.46
2019-03-27T11:47:42.010Z,97.37
2019-03-27T11:48:41.906Z,96.41
2019-03-27T11:49:41.803Z,96.80
2019-03-27T11:50:45.303Z,97.85
2019-03-27T11:51:41.603Z,98.80
2019-03-27T11:52:41.500Z,97.66
2019-03-27T11:53:41.401Z,97.66
2019-03-27T11:54:41.299Z,96.32
2019-03-27T11:55:41.217Z,97.94
2019-03-27T11:56:41.100Z,98.22
2019-03-27T11:57:40.999Z,98.13
2019-03-27T11:58:40.901Z,97.66
2019-03-27T11:59:53.174Z,97.85
2019-03-27T12:00:53.797Z,99.18
2019-03-27T12:01:43.631Z,98.61
2019-03-27T12:02:40.551Z,98.70
2019-03-27T12:03:40.401Z,98.61
2019-03-27T12:04:40.303Z,98.32
2019-03-27T12:05:40.200Z,98.22
2019-03-27T12:06:40.116Z,97.17
2019-03-27T12:07:40.000Z,96.94
2019-03-27T12:08:39.900Z,97.51
2019-03-27T12:09:39.797Z,94.84
2019-03-27T12:10:39.698Z,93.98
2019-03-27T12:11:39.599Z,93.12
2019-03-27T12:12:39.498Z,96.17
2019-03-27T12:13:39.400Z,96.13
2019-03-27T12:14:39.303Z,97.08
2019-03-27T12:15:39.195Z,97.80
2019-03-27T12:16:39.097Z,99.32
2019-03-27T12:17:38.994Z,99.04
2019-03-27T12:18:38.894Z,99.08
2019-03-27T12:19:38.794Z,99.18
2019-03-27T12:20:38.694Z,99.37
2019-03-27T12:21:38.598Z,98.71
2019-03-27T12:22:38.520Z,98.47
2019-03-27T12:23:38.397Z,99.80
2019-03-27T12:24:38.295Z,98.85
2019-03-27T12:25:38.196Z,98.85
2019-03-27T12:26:38.095Z,98.27
2019-03-27T12:27:37.996Z,98.66
2019-03-27T12:28:37.896Z,97.37
2019-03-27T12:29:37.797Z,98.32
2019-03-27T12:30:37.696Z,97.08
2019-03-27T12:31:37.597Z,97.85
2019-03-27T12:32:37.499Z,98.75
2019-03-27T12:33:37.397Z,99.13
2019-03-27T12:34:37.294Z,98.37
2019-03-27T12:35:37.196Z,98.37
2019-03-27T12:36:37.099Z,98.03
2019-03-27T12:37:36.997Z,98.27
2019-03-27T12:38:36.896Z,98.22
2019-03-27T12:39:36.822Z,99.32
2019-03-27T12:40:36.699Z,98.70
2019-03-27T12:41:36.597Z,98.37
2019-03-27T12:42:36.565Z,98.32
2019-03-27T12:43:36.402Z,98.61
2019-03-27T12:44:36.296Z,99.32
2019-03-27T12:45:36.201Z,99.18
2019-03-27T12:46:36.098Z,99.04
2019-03-27T12:47:35.998Z,99.80
2019-03-27T12:48:35.899Z,98.66
2019-03-27T12:49:35.798Z,98.37
2019-03-27T12:50:35.702Z,98.80
2019-03-27T12:51:35.603Z,98.80